Time;durP1;ratioP1;P1;durP2;ratioP2;P2;SDS_P1;SDS_P2;PMS_P1;PMS_P2;Temp;Humidity;BMP_temperature;BMP_pressure;BME280_temperature;BME280_humidity;BME280_pressure;Samples;Min_cycle;Max_cycle;Signal;HPM_P1;HPM_P2
2022/06/21 00:02:14;;;;;;;4.00;0.75;;;13.20;99.90;;;;;;6216134;23;20043;-92
2022/06/21 00:04:39;;;;;;;;;;;13.20;99.90;;;;;;6199847;23;20434;-93
2022/06/21 00:07:09;;;;;;;1.88;0.70;;;13.10;99.90;;;;;;6194932;23;19916;-93
2022/06/21 00:10:01;;;;;;;2.20;0.70;;;13.10;99.90;;;;;;6195184;23;20020;-92
2022/06/21 00:13:25;;;;;;;4.55;0.95;;;13.00;99.90;;;;;;6217207;23;20096;-93
2022/06/21 00:15:54;;;;;;;1.73;0.80;;;13.00;99.90;;;;;;6189836;23;20016;-93
2022/06/21 00:18:22;;;;;;;2.63;0.70;;;13.00;99.90;;;;;;6195100;23;20380;-93
2022/06/21 00:20:48;;;;;;;3.53;0.70;;;12.90;99.90;;;;;;6194680;23;20341;-91
2022/06/21 00:23:24;;;;;;;2.10;0.77;;;12.90;99.90;;;;;;6195089;23;20016;-91
2022/06/21 00:25:50;;;;;;;1.70;0.55;;;12.70;99.90;;;;;;6194813;23;20016;-91
2022/06/21 00:28:17;;;;;;;2.92;0.80;;;12.70;99.90;;;;;;6195024;23;20091;-90
2022/06/21 00:30:44;;;;;;;2.60;0.80;;;12.70;99.90;;;;;;6195267;23;20449;-91
2022/06/21 00:33:19;;;;;;;1.40;0.77;;;12.70;99.90;;;;;;6194854;23;20445;-91
2022/06/21 00:35:48;;;;;;;1.30;0.57;;;12.70;99.90;;;;;;6211698;22;20035;-90
2022/06/21 00:38:17;;;;;;;3.28;0.80;;;12.60;99.90;;;;;;6203961;23;20219;-92
2022/06/21 00:40:43;;;;;;;3.25;0.70;;;12.70;99.90;;;;;;6194957;23;20473;-91
2022/06/21 00:43:20;;;;;;;2.28;0.85;;;12.60;99.90;;;;;;6195301;23;20034;-91
2022/06/21 00:45:47;;;;;;;;;;;12.60;99.90;;;;;;6195447;23;20024;-91
2022/06/21 00:48:36;;;;;;;2.20;0.80;;;12.60;99.90;;;;;;6195024;23;19911;-92
2022/06/21 00:51:24;;;;;;;3.03;0.75;;;12.60;99.90;;;;;;6194928;23;20078;-93
2022/06/21 00:53:57;;;;;;;1.95;0.70;;;12.60;99.90;;;;;;6194946;23;20020;-92
2022/06/21 00:56:37;;;;;;;2.35;0.80;;;12.60;99.90;;;;;;6195343;23;20012;-94
2022/06/21 02:12:32;;;;;;;1.75;0.90;;;11.90;99.90;;;;;;6222785;22;20020;-90
2022/06/21 02:15:20;;;;;;;4.20;1.00;;;11.80;99.90;;;;;;6195910;23;20457;-90
2022/06/21 02:21:15;;;;;;;3.10;1.15;;;11.70;99.90;;;;;;6221338;23;20047;-89
2022/06/21 02:23:41;;;;;;;2.00;1.00;;;11.70;99.90;;;;;;6195793;23;20016;-94
2022/06/21 02:26:08;;;;;;;2.15;0.90;;;11.70;99.90;;;;;;6196203;23;20019;-93
2022/06/21 02:28:47;;;;;;;3.65;1.30;;;11.60;99.90;;;;;;6195930;23;20051;-93
2022/06/21 02:31:16;;;;;;;1.98;0.95;;;11.60;99.90;;;;;;6195910;23;20016;-91
2022/06/21 02:45:16;;;;;;;2.90;1.40;;;11.60;99.90;;;;;;6198447;22;20431;-92
2022/06/21 02:47:44;;;;;;;;;;;11.60;99.90;;;;;;6166432;23;20464;-91
2022/06/21 02:50:25;;;;;;;4.22;1.30;;;11.60;99.90;;;;;;6166034;23;20335;-91
2022/06/21 02:52:53;;;;;;;3.40;1.10;;;11.60;99.90;;;;;;6165664;23;20107;-89
2022/06/21 02:55:47;;;;;;;2.65;1.40;;;11.60;99.90;;;;;;6165803;23;20472;-89
2022/06/21 02:58:35;;;;;;;4.25;1.20;;;11.60;99.90;;;;;;6165550;23;20016;-90
2022/06/21 03:01:03;;;;;;;2.65;1.25;;;11.50;99.90;;;;;;6165879;23;20074;-89
2022/06/21 03:03:32;;;;;;;2.42;1.17;;;11.50;99.90;;;;;;6165618;23;20013;-90
2022/06/21 03:06:04;;;;;;;3.88;1.30;;;11.50;99.90;;;;;;6165598;23;20047;-90
2022/06/21 03:08:34;;;;;;;2.38;1.20;;;11.40;99.90;;;;;;6165743;23;20017;-90
2022/06/21 03:11:01;;;;;;;3.35;1.13;;;11.50;99.90;;;;;;6165892;23;20051;-90
2022/06/21 03:13:31;;;;;;;2.88;1.40;;;11.50;99.90;;;;;;6165794;23;20025;-90
2022/06/21 03:16:01;;;;;;;3.40;1.27;;;11.50;99.90;;;;;;6165621;23;20071;-91
2022/06/21 03:18:33;;;;;;;2.45;1.10;;;11.60;99.90;;;;;;6165339;23;20021;-91
2022/06/21 03:21:50;;;;;;;;;;;;;;;;;;;;;
2022/06/21 03:43:57;;;;;;;3.50;1.52;;;11.40;99.90;;;;;;6220755;22;20035;-93
2022/06/21 03:46:47;;;;;;;3.08;1.50;;;11.40;99.90;;;;;;6195427;23;20110;-94
2022/06/21 03:49:47;;;;;;;2.72;1.20;;;11.40;99.90;;;;;;6195400;23;20023;-94
2022/06/21 03:52:41;;;;;;;2.67;1.23;;;11.50;99.90;;;;;;6208633;23;20035;-94
2022/06/21 03:55:43;;;;;;;4.70;1.38;;;11.50;99.90;;;;;;6220214;23;20070;-92
2022/06/21 03:58:57;;;;;;;2.60;1.20;;;11.50;99.90;;;;;;6175549;23;20024;-92
2022/06/21 04:01:43;;;;;;;4.85;1.58;;;11.60;99.90;;;;;;6130678;23;20011;-92
2022/06/21 04:04:26;;;;;;;4.75;1.80;;;11.60;99.90;;;;;;6195002;23;20523;-93
2022/06/21 04:07:10;;;;;;;3.45;1.63;;;11.60;99.90;;;;;;6195451;23;20016;-92
2022/06/21 04:09:43;;;;;;;3.25;1.67;;;11.60;99.90;;;;;;6195236;23;20460;-90
2022/06/21 04:12:28;;;;;;;3.35;1.70;;;11.70;99.90;;;;;;6195097;23;20107;-91
2022/06/21 04:15:06;;;;;;;2.90;1.40;;;11.80;99.90;;;;;;6194863;23;20047;-91
2022/06/21 04:17:49;;;;;;;3.40;1.65;;;11.80;99.90;;;;;;6195049;23;20016;-92
2022/06/21 04:20:40;;;;;;;3.35;1.60;;;11.90;99.90;;;;;;6194859;23;20475;-91
2022/06/21 04:23:42;;;;;;;4.32;1.83;;;11.90;99.90;;;;;;6194785;23;20480;-91
2022/06/21 04:26:17;;;;;;;5.28;1.75;;;12.00;99.90;;;;;;6194673;23;20102;-91
2022/06/21 04:29:04;;;;;;;4.43;1.80;;;12.10;99.90;;;;;;6194712;23;20070;-92
2022/06/21 04:39:35;;;;;;;3.75;1.83;;;12.30;99.90;;;;;;6198403;22;20327;-91
2022/06/21 04:42:43;;;;;;;3.70;1.67;;;12.40;99.90;;;;;;6161940;23;20028;-90
2022/06/21 04:45:30;;;;;;;4.50;1.70;;;12.50;99.90;;;;;;6178860;23;20065;-90
2022/06/21 04:48:26;;;;;;;4.10;1.70;;;12.60;99.90;;;;;;6163943;23;20045;-88
2022/06/21 04:51:21;;;;;;;3.83;1.80;;;12.60;99.90;;;;;;6159823;23;20044;-87
2022/06/21 04:54:01;;;;;;;3.22;1.45;;;12.70;99.90;;;;;;6159312;23;20013;-87
2022/06/21 05:00:39;;;;;;;4.63;1.70;;;12.80;99.90;;;;;;6188355;23;20419;-89
2022/06/21 05:03:27;;;;;;;4.90;1.80;;;12.90;99.90;;;;;;6162903;23;20032;-90
2022/06/21 05:05:53;;;;;;;3.58;1.67;;;12.90;99.90;;;;;;6165640;23;20061;-96
2022/06/21 05:08:22;;;;;;;3.65;1.63;;;12.90;99.90;;;;;;6167220;23;20465;-88
2022/06/21 05:11:06;;;;;;;2.83;1.50;;;13.00;99.90;;;;;;6161716;23;20071;-90
2022/06/21 05:13:37;;;;;;;3.63;1.67;;;13.30;99.90;;;;;;6161805;23;20023;-90
2022/06/21 05:16:24;;;;;;;2.90;1.45;;;13.50;99.90;;;;;;6162310;23;20048;-92
2022/06/21 05:21:33;;;;;;;6.20;1.83;;;14.30;99.90;;;;;;6258256;22;20030;-90
2022/06/21 05:23:59;;;;;;;4.25;1.50;;;14.80;99.90;;;;;;6223432;23;20020;-90
2022/06/21 05:26:43;;;;;;;5.60;1.75;;;14.90;99.90;;;;;;6222917;23;20016;-92
2022/06/21 05:29:17;;;;;;;3.83;1.52;;;14.80;99.90;;;;;;6223282;23;20059;-96
2022/06/21 05:31:47;;;;;;;3.33;1.40;;;14.70;99.90;;;;;;6229412;23;20016;-96
2022/06/21 05:34:16;;;;;;;4.60;1.80;;;14.70;99.90;;;;;;6261120;23;20070;-96
2022/06/21 05:36:51;;;;;;;3.42;1.42;;;14.70;99.90;;;;;;6227073;23;20060;-95
2022/06/21 05:39:27;;;;;;;3.65;1.10;;;14.70;99.90;;;;;;6233954;23;20020;-93
2022/06/21 06:05:20;;;;;;;1.85;1.02;;;14.90;99.90;;;;;;6220067;22;20020;-92
2022/06/21 06:07:51;;;;;;;3.60;1.52;;;15.00;99.90;;;;;;6193920;23;20076;-93
2022/06/21 06:10:20;;;;;;;3.63;1.20;;;15.10;99.90;;;;;;6195045;23;20017;-95
2022/06/21 06:12:50;;;;;;;3.33;1.30;;;15.10;99.90;;;;;;6196041;23;20017;-95
2022/06/21 06:15:49;;;;;;;4.03;1.30;;;15.30;99.90;;;;;;6217046;23;20342;-96
2022/06/21 06:18:23;;;;;;;1.75;0.80;;;15.60;99.90;;;;;;6193002;23;20430;-92
2022/06/21 06:21:00;;;;;;;2.97;1.35;;;15.70;99.90;;;;;;6198743;23;20016;-94
2022/06/21 06:23:52;;;;;;;3.67;1.05;;;15.80;99.90;;;;;;6191542;23;20478;-94
2022/06/21 06:26:23;;;;;;;2.20;1.02;;;16.40;99.90;;;;;;6177881;23;20023;-92
2022/06/21 06:29:26;;;;;;;2.53;1.10;;;17.00;99.90;;;;;;6208224;23;20012;-95
2022/06/21 06:32:19;;;;;;;2.30;0.93;;;17.20;99.90;;;;;;6210465;23;20016;-92
2022/06/21 06:34:50;;;;;;;2.45;0.73;;;17.00;99.90;;;;;;6220246;23;20013;-91
2022/06/21 06:37:38;;;;;;;3.08;0.90;;;16.80;99.90;;;;;;6225589;23;20067;-92
2022/06/21 06:40:32;;;;;;;1.17;0.80;;;16.50;99.90;;;;;;6223459;23;20016;-95
2022/06/21 06:43:07;;;;;;;1.90;1.00;;;16.30;99.90;;;;;;6194288;23;20071;-95
2022/06/21 06:45:40;;;;;;;2.38;0.93;;;16.20;99.90;;;;;;6219538;23;20017;-96
2022/06/21 06:48:39;;;;;;;2.83;1.10;;;16.10;99.90;;;;;;6210100;23;20021;-90
2022/06/21 06:51:14;;;;;;;2.67;1.00;;;16.10;99.90;;;;;;6220932;23;20013;-92
2022/06/21 06:53:50;;;;;;;2.20;0.80;;;16.10;99.90;;;;;;6197655;23;20321;-92
2022/06/21 06:56:25;;;;;;;3.53;1.05;;;16.20;99.90;;;;;;6220787;23;20078;-94
2022/06/21 06:59:03;;;;;;;2.97;1.00;;;16.30;99.90;;;;;;6193131;23;20101;-94
2022/06/21 07:02:01;;;;;;;3.50;1.38;;;16.40;99.90;;;;;;6208355;23;20007;-89
2022/06/21 07:04:41;;;;;;;3.05;1.30;;;16.30;99.90;;;;;;6232166;23;20021;-90
2022/06/21 07:07:19;;;;;;;3.67;1.38;;;16.20;99.90;;;;;;6204234;23;20052;-93
2022/06/21 07:09:53;;;;;;;3.63;1.20;;;16.00;99.90;;;;;;6202539;23;20008;-92
2022/06/21 07:12:28;;;;;;;2.25;1.25;;;15.90;99.90;;;;;;6204308;23;20052;-94
2022/06/21 07:14:55;;;;;;;3.30;1.38;;;15.90;99.90;;;;;;6204365;23;20019;-94
2022/06/21 14:55:23;;;;;;;3.05;1.35;;;21.20;95.80;;;;;;6286614;22;20138;-93
2022/06/21 17:59:16;;;;;;;4.75;1.85;;;18.70;99.90;;;;;;6291619;22;20146;-93
2022/06/21 18:01:58;;;;;;;3.78;1.55;;;18.70;99.90;;;;;;6229571;22;20024;-95
2022/06/21 18:04:29;;;;;;;4.40;1.73;;;18.70;99.90;;;;;;6226432;22;20015;-94
2022/06/21 18:07:22;;;;;;;5.13;1.70;;;18.70;99.90;;;;;;6225300;22;20016;-93
2022/06/21 18:19:57;;;;;;;3.45;1.50;;;18.50;99.90;;;;;;6189353;22;20068;-93
2022/06/21 18:22:33;;;;;;;2.53;1.25;;;18.50;99.90;;;;;;6167171;23;20080;-91
2022/06/21 19:26:54;;;;;;;5.18;2.17;;;17.40;99.90;;;;;;6279075;22;20426;-94
2022/06/21 19:29:42;;;;;;;4.93;2.00;;;17.30;99.90;;;;;;6227458;22;20098;-94
2022/06/21 20:14:48;;;;;;;6.70;4.28;;;16.30;99.90;;;;;;6246023;22;20027;-91
2022/06/21 20:17:26;;;;;;;6.97;4.00;;;16.30;99.90;;;;;;6219702;23;20020;-90
2022/06/21 20:20:17;;;;;;;6.72;4.05;;;16.20;99.90;;;;;;6219858;23;20446;-90
2022/06/21 20:23:10;;;;;;;8.05;4.10;;;16.20;99.90;;;;;;6219407;23;20019;-93
2022/06/21 20:25:48;;;;;;;7.38;4.18;;;16.10;99.90;;;;;;6244781;23;20020;-90
2022/06/21 20:28:23;;;;;;;6.47;3.83;;;16.00;99.90;;;;;;6219676;23;20020;-91
